createdAt,value
2023-04-24T00:01:22.910Z,100.00
2023-04-24T00:03:49.814Z,100.00
2023-04-24T00:06:17.947Z,100.00
2023-04-24T00:08:44.809Z,100.00
2023-04-24T00:11:11.781Z,100.00
2023-04-24T00:13:39.094Z,100.00
2023-04-24T00:16:06.717Z,100.00
2023-04-24T00:18:33.786Z,100.00
2023-04-24T00:21:00.961Z,100.00
2023-04-24T00:23:28.581Z,100.00
2023-04-24T00:25:55.484Z,100.00
2023-04-24T00:28:22.310Z,100.00
2023-04-24T00:30:49.121Z,100.00
2023-04-24T00:33:15.994Z,100.00
2023-04-24T00:35:42.785Z,100.00
2023-04-24T00:38:09.583Z,100.00
2023-04-24T00:40:36.447Z,100.00
2023-04-24T00:43:03.372Z,100.00
2023-04-24T00:45:32.223Z,100.00
2023-04-24T00:47:59.530Z,100.00
2023-04-24T00:50:27.435Z,100.00
2023-04-24T00:52:54.342Z,100.00
2023-04-24T00:55:21.394Z,100.00
2023-04-24T00:57:48.761Z,100.00
2023-04-24T01:00:18.693Z,100.00
2023-04-24T01:02:46.863Z,100.00
2023-04-24T01:05:16.505Z,100.00
2023-04-24T01:07:46.689Z,100.00
2023-04-24T01:10:14.923Z,100.00
2023-04-24T01:12:42.144Z,100.00
2023-04-24T01:15:10.116Z,100.00
2023-04-24T01:17:37.106Z,100.00
2023-04-24T01:20:06.921Z,100.00
2023-04-24T01:22:35.773Z,100.00
2023-04-24T01:25:04.542Z,100.00
2023-04-24T01:27:31.648Z,100.00
2023-04-24T01:29:58.722Z,100.00
2023-04-24T01:32:26.720Z,100.00
2023-04-24T01:34:53.991Z,100.00
2023-04-24T01:37:20.817Z,100.00
2023-04-24T01:39:47.702Z,100.00
2023-04-24T01:42:15.867Z,100.00
2023-04-24T01:44:43.243Z,100.00
2023-04-24T01:47:10.208Z,100.00
2023-04-24T01:49:39.196Z,100.00
2023-04-24T01:52:07.472Z,100.00
2023-04-24T01:54:34.377Z,100.00
2023-04-24T01:57:02.993Z,100.00
2023-04-24T01:59:31.126Z,100.00
2023-04-24T02:01:57.959Z,100.00
2023-04-24T02:04:24.835Z,100.00
2023-04-24T02:06:52.198Z,100.00
2023-04-24T02:09:19.046Z,100.00
2023-04-24T02:11:45.839Z,100.00
2023-04-24T02:14:12.768Z,100.00
2023-04-24T02:16:39.676Z,100.00
2023-04-24T02:19:06.791Z,100.00
2023-04-24T02:21:33.873Z,100.00
2023-04-24T02:24:00.935Z,100.00
2023-04-24T02:26:27.916Z,100.00
2023-04-24T02:28:54.759Z,100.00
2023-04-24T02:31:21.592Z,100.00
2023-04-24T02:33:48.528Z,100.00
2023-04-24T02:36:15.427Z,100.00
2023-04-24T02:38:42.338Z,100.00
2023-04-24T02:41:09.225Z,100.00
2023-04-24T02:43:36.122Z,100.00
2023-04-24T02:46:03.019Z,100.00
2023-04-24T02:48:29.888Z,100.00
2023-04-24T02:50:56.975Z,100.00
2023-04-24T02:53:24.310Z,100.00
2023-04-24T02:55:51.150Z,100.00
2023-04-24T02:58:18.353Z,100.00
2023-04-24T03:00:45.189Z,100.00
2023-04-24T03:03:12.084Z,100.00
2023-04-24T03:05:39.024Z,100.00
2023-04-24T03:08:06.014Z,100.00
2023-04-24T03:10:33.204Z,100.00
2023-04-24T03:13:00.044Z,100.00
2023-04-24T03:15:27.494Z,100.00
2023-04-24T03:17:56.685Z,100.00
2023-04-24T03:20:24.022Z,100.00
2023-04-24T03:22:50.809Z,100.00
2023-04-24T03:25:17.656Z,100.00
2023-04-24T03:27:44.480Z,100.00
2023-04-24T03:30:11.620Z,100.00
2023-04-24T03:32:40.291Z,100.00
2023-04-24T03:35:09.457Z,100.00
2023-04-24T03:37:36.375Z,100.00
2023-04-24T03:40:04.066Z,100.00
2023-04-24T03:42:30.901Z,100.00
2023-04-24T03:44:57.741Z,100.00
2023-04-24T03:47:24.674Z,100.00
2023-04-24T03:49:52.102Z,100.00
2023-04-24T03:52:18.990Z,100.00
2023-04-24T03:54:45.801Z,100.00
2023-04-24T03:57:12.654Z,100.00
2023-04-24T03:59:39.568Z,100.00
2023-04-24T04:02:06.472Z,100.00
2023-04-24T04:04:33.516Z,100.00
2023-04-24T04:07:03.858Z,100.00
2023-04-24T04:09:30.845Z,100.00
2023-04-24T04:11:57.683Z,100.00
2023-04-24T04:14:24.542Z,100.00
2023-04-24T04:16:53.973Z,100.00
2023-04-24T04:19:21.662Z,100.00
2023-04-24T04:21:53.122Z,100.00
2023-04-24T04:24:21.779Z,100.00
2023-04-24T04:26:48.700Z,100.00
2023-04-24T04:29:18.449Z,100.00
2023-04-24T04:31:46.296Z,100.00
2023-04-24T04:34:13.698Z,100.00
2023-04-24T04:36:41.745Z,100.00
2023-04-24T04:39:08.546Z,100.00
2023-04-24T04:41:38.732Z,100.00
2023-04-24T04:44:05.638Z,100.00
2023-04-24T04:46:37.278Z,100.00
2023-04-24T04:49:04.242Z,100.00
2023-04-24T04:51:32.067Z,100.00
2023-04-24T04:53:58.924Z,100.00
2023-04-24T04:56:25.792Z,100.00
2023-04-24T04:58:52.642Z,100.00
2023-04-24T05:01:19.718Z,100.00
2023-04-24T05:03:46.724Z,100.00
2023-04-24T05:06:13.667Z,100.00
2023-04-24T05:08:40.765Z,100.00
2023-04-24T05:11:07.724Z,100.00
2023-04-24T05:13:40.854Z,100.00
2023-04-24T05:16:08.361Z,100.00
2023-04-24T05:18:35.304Z,100.00
2023-04-24T05:21:02.413Z,100.00
2023-04-24T05:23:29.253Z,100.00
2023-04-24T05:25:56.339Z,100.00
2023-04-24T05:28:23.166Z,100.00
2023-04-24T05:30:50.045Z,100.00
2023-04-24T05:33:16.847Z,100.00
2023-04-24T05:35:47.447Z,100.00
2023-04-24T05:38:14.862Z,100.00
2023-04-24T05:40:41.690Z,100.00
2023-04-24T05:43:08.531Z,100.00
2023-04-24T05:45:36.996Z,100.00
2023-04-24T05:48:04.611Z,100.00
2023-04-24T05:50:31.586Z,100.00
2023-04-24T05:52:59.468Z,100.00
2023-04-24T05:55:26.891Z,100.00
2023-04-24T05:57:53.965Z,100.00
2023-04-24T06:00:21.292Z,100.00
2023-04-24T06:02:48.311Z,100.00
2023-04-24T06:05:16.035Z,100.00
2023-04-24T06:07:43.085Z,100.00
2023-04-24T06:10:11.058Z,100.00
2023-04-24T06:12:38.402Z,100.00
2023-04-24T06:15:06.025Z,100.00
2023-04-24T06:17:33.439Z,100.00
2023-04-24T06:20:00.334Z,100.00
2023-04-24T06:22:27.220Z,100.00
2023-04-24T06:24:54.062Z,100.00
2023-04-24T06:27:20.887Z,100.00
2023-04-24T06:29:53.663Z,100.00
2023-04-24T06:32:21.133Z,100.00
2023-04-24T06:34:48.074Z,100.00
2023-04-24T06:37:16.525Z,100.00
2023-04-24T06:39:43.779Z,100.00
2023-04-24T06:42:10.846Z,100.00
2023-04-24T06:44:42.078Z,100.00
2023-04-24T06:47:10.604Z,100.00
2023-04-24T06:49:38.452Z,100.00
2023-04-24T06:52:06.401Z,100.00
2023-04-24T06:54:33.884Z,100.00
2023-04-24T06:57:03.375Z,100.00
2023-04-24T06:59:31.362Z,100.00
2023-04-24T07:01:58.927Z,100.00
2023-04-24T07:04:26.321Z,100.00
2023-04-24T07:06:56.839Z,100.00
2023-04-24T07:09:24.832Z,100.00
2023-04-24T07:11:52.687Z,100.00
2023-04-24T07:14:19.607Z,100.00
2023-04-24T07:16:46.956Z,100.00
2023-04-24T07:19:14.867Z,100.00
2023-04-24T07:21:41.929Z,100.00
2023-04-24T07:24:11.709Z,100.00
2023-04-24T07:26:39.704Z,100.00
2023-04-24T07:29:07.319Z,100.00
2023-04-24T07:31:34.396Z,100.00
2023-04-24T07:34:02.805Z,100.00
2023-04-24T07:36:29.822Z,100.00
2023-04-24T07:38:57.650Z,100.00
2023-04-24T07:41:25.358Z,100.00
2023-04-24T07:43:53.516Z,100.00
2023-04-24T07:46:20.998Z,100.00
2023-04-24T07:48:58.640Z,100.00
2023-04-24T07:51:34.535Z,100.00
2023-04-24T07:54:01.483Z,100.00
2023-04-24T07:56:28.331Z,100.00
2023-04-24T07:58:55.224Z,100.00
2023-04-24T08:01:22.070Z,100.00
2023-04-24T08:03:49.191Z,100.00
2023-04-24T08:06:16.308Z,100.00
2023-04-24T08:08:43.135Z,100.00
2023-04-24T08:11:09.956Z,97.67
2023-04-24T08:13:36.780Z,92.46
2023-04-24T08:16:03.810Z,93.99
2023-04-24T08:18:30.860Z,94.33
2023-04-24T08:21:02.292Z,95.00
2023-04-24T08:23:30.561Z,91.57
2023-04-24T08:25:58.286Z,86.41
2023-04-24T08:28:25.276Z,83.65
2023-04-24T08:30:55.527Z,86.81
2023-04-24T08:33:25.819Z,82.13
2023-04-24T08:35:53.800Z,83.88
2023-04-24T08:38:20.702Z,78.73
2023-04-24T08:40:50.510Z,77.24
2023-04-24T08:43:18.163Z,77.55
2023-04-24T08:45:45.460Z,81.76
2023-04-24T08:48:23.377Z,81.18
2023-04-24T08:50:58.401Z,80.93
2023-04-24T08:53:27.319Z,80.13
2023-04-24T08:55:57.720Z,79.97
2023-04-24T08:58:27.576Z,79.33
2023-04-24T09:00:58.987Z,78.67
2023-04-24T09:03:28.541Z,77.01
2023-04-24T09:05:56.916Z,77.31
2023-04-24T09:08:27.235Z,73.27
2023-04-24T09:10:54.319Z,74.74
2023-04-24T09:13:21.885Z,71.58
2023-04-24T09:15:49.040Z,69.20
2023-04-24T09:18:15.944Z,71.67
2023-04-24T09:21:18.931Z,70.60
2023-04-24T09:23:45.944Z,71.88
2023-04-24T09:26:13.454Z,71.01
2023-04-24T09:28:41.716Z,70.54
2023-04-24T09:31:14.961Z,68.46
2023-04-24T09:33:54.851Z,67.24
2023-04-24T09:36:37.939Z,65.73
2023-04-24T09:39:16.920Z,64.24
2023-04-24T09:41:49.199Z,63.55
2023-04-24T09:44:25.127Z,64.17
2023-04-24T09:47:01.685Z,63.22
2023-04-24T09:49:37.722Z,63.48
2023-04-24T09:52:10.978Z,64.00
2023-04-24T09:54:39.321Z,65.06
2023-04-24T09:57:08.610Z,62.43
2023-04-24T09:59:40.546Z,61.19
2023-04-24T10:02:19.979Z,58.61
2023-04-24T10:04:57.837Z,58.43
2023-04-24T10:07:27.372Z,57.80
2023-04-24T10:09:55.613Z,58.85
2023-04-24T10:12:22.887Z,56.32
2023-04-24T10:14:50.971Z,57.17
2023-04-24T10:17:18.543Z,54.98
2023-04-24T10:19:46.978Z,56.08
2023-04-24T10:22:16.690Z,54.91
2023-04-24T10:24:45.054Z,53.00
2023-04-24T10:27:16.205Z,54.87
2023-04-24T10:29:45.009Z,55.86
2023-04-24T10:32:12.469Z,54.13
2023-04-24T10:34:39.569Z,52.82
2023-04-24T10:37:06.584Z,52.45
2023-04-24T10:39:34.570Z,53.10
2023-04-24T10:42:01.720Z,53.13
2023-04-24T10:44:37.939Z,50.64
2023-04-24T10:47:05.071Z,49.89
2023-04-24T10:49:33.074Z,48.63
2023-04-24T10:52:06.708Z,48.78
2023-04-24T10:54:46.367Z,49.40
2023-04-24T10:57:19.203Z,50.63
2023-04-24T10:59:47.100Z,50.53
2023-04-24T11:02:18.144Z,49.64
2023-04-24T11:04:46.366Z,50.13
2023-04-24T11:07:13.930Z,50.88
2023-04-24T11:09:44.414Z,50.50
2023-04-24T11:12:13.889Z,51.41
2023-04-24T11:15:01.070Z,52.65
2023-04-24T11:17:38.579Z,53.48
2023-04-24T11:20:22.939Z,52.86
2023-04-24T11:22:55.768Z,52.33
2023-04-24T11:25:26.217Z,52.82
2023-04-24T11:28:05.649Z,53.81
2023-04-24T11:30:34.593Z,55.72
2023-04-24T11:33:05.984Z,56.61
2023-04-24T11:35:40.641Z,56.81
2023-04-24T11:38:23.517Z,57.18
2023-04-24T11:40:53.162Z,56.45
2023-04-24T11:43:20.861Z,56.12
2023-04-24T11:45:51.233Z,56.99
2023-04-24T11:48:23.761Z,57.07
2023-04-24T11:50:51.487Z,57.58
2023-04-24T11:53:22.444Z,57.95
2023-04-24T11:55:49.279Z,58.12
2023-04-24T11:58:16.153Z,58.00
2023-04-24T12:00:43.004Z,58.60
2023-04-24T12:03:12.589Z,59.45
2023-04-24T12:05:40.666Z,58.21
2023-04-24T12:08:07.956Z,59.33
2023-04-24T12:10:36.050Z,59.30
2023-04-24T12:13:03.102Z,58.27
2023-04-24T12:15:30.236Z,59.30
2023-04-24T12:17:58.100Z,60.63
2023-04-24T12:20:31.449Z,60.78
2023-04-24T12:23:00.364Z,61.47
2023-04-24T12:25:39.586Z,62.99
2023-04-24T12:28:06.574Z,61.95
2023-04-24T12:30:37.196Z,61.06
2023-04-24T12:33:04.541Z,60.87
2023-04-24T12:35:34.472Z,60.60
2023-04-24T12:38:09.608Z,62.30
2023-04-24T12:40:36.770Z,62.98
2023-04-24T12:43:14.527Z,64.04
2023-04-24T12:45:41.363Z,64.84
2023-04-24T12:48:08.243Z,63.94
2023-04-24T12:50:35.237Z,62.44
2023-04-24T12:53:02.063Z,61.73
2023-04-24T12:55:28.893Z,62.14
2023-04-24T12:57:57.062Z,61.55
2023-04-24T13:00:23.871Z,62.23
2023-04-24T13:02:51.013Z,62.38
2023-04-24T13:05:18.099Z,63.28
2023-04-24T13:07:44.978Z,62.47
2023-04-24T13:10:14.226Z,63.05
2023-04-24T13:12:41.632Z,62.89
2023-04-24T13:15:08.881Z,63.27
2023-04-24T13:17:35.726Z,63.28
2023-04-24T13:20:02.555Z,63.39
2023-04-24T13:22:29.430Z,64.60
2023-04-24T13:24:57.227Z,63.57
2023-04-24T13:27:24.060Z,64.52
2023-04-24T13:29:50.914Z,67.17
2023-04-24T13:32:18.601Z,70.12
2023-04-24T13:34:45.565Z,73.98
2023-04-24T13:37:12.452Z,76.10
2023-04-24T13:39:39.361Z,79.33
2023-04-24T13:42:06.257Z,79.14
2023-04-24T13:44:33.368Z,76.45
2023-04-24T13:47:00.719Z,76.05
2023-04-24T13:49:28.640Z,75.21
2023-04-24T13:51:57.276Z,74.92
2023-04-24T13:54:27.327Z,74.41
2023-04-24T13:56:58.331Z,72.22
2023-04-24T13:59:25.345Z,69.01
2023-04-24T14:01:52.253Z,65.93
2023-04-24T14:04:19.456Z,65.51
2023-04-24T14:06:46.556Z,64.79
2023-04-24T14:09:13.858Z,66.06
2023-04-24T14:11:41.540Z,67.90
2023-04-24T14:14:08.998Z,72.15
2023-04-24T14:16:36.120Z,74.13
2023-04-24T14:19:03.006Z,74.77
2023-04-24T14:21:29.899Z,75.39
2023-04-24T14:23:56.783Z,76.59
2023-04-24T14:26:23.624Z,77.44
2023-04-24T14:28:51.234Z,76.82
2023-04-24T14:31:19.346Z,77.77
2023-04-24T14:33:46.890Z,78.40
2023-04-24T14:36:13.845Z,78.37
2023-04-24T14:38:40.706Z,79.77
2023-04-24T14:41:13.908Z,79.73
2023-04-24T14:43:41.421Z,76.52
2023-04-24T14:46:08.303Z,76.24
2023-04-24T14:48:35.235Z,77.00
2023-04-24T14:51:02.052Z,80.58
2023-04-24T14:53:28.879Z,84.19
2023-04-24T14:55:55.746Z,85.52
2023-04-24T14:58:22.900Z,85.28
2023-04-24T15:00:52.815Z,83.75
2023-04-24T15:03:21.679Z,85.67
2023-04-24T15:05:48.811Z,85.07
2023-04-24T15:08:15.917Z,85.84
2023-04-24T15:10:43.088Z,84.80
2023-04-24T15:13:09.958Z,85.71
2023-04-24T15:15:37.803Z,85.10
2023-04-24T15:18:06.509Z,85.00
2023-04-24T15:20:33.394Z,80.17
2023-04-24T15:23:01.364Z,80.24
2023-04-24T15:25:28.312Z,80.15
2023-04-24T15:27:55.207Z,79.22
2023-04-24T15:30:22.053Z,79.32
2023-04-24T15:32:48.927Z,79.28
2023-04-24T15:35:17.015Z,78.90
2023-04-24T15:37:44.120Z,78.67
2023-04-24T15:40:14.145Z,77.75
2023-04-24T15:42:41.468Z,77.77
2023-04-24T15:45:09.428Z,76.43
2023-04-24T15:47:36.552Z,74.44
2023-04-24T15:50:09.349Z,74.73
2023-04-24T15:52:36.708Z,74.46
2023-04-24T15:55:05.849Z,75.34
2023-04-24T15:57:32.808Z,74.08
2023-04-24T16:00:00.338Z,74.01
2023-04-24T16:02:27.601Z,78.08
2023-04-24T16:04:54.938Z,79.70
2023-04-24T16:07:21.891Z,81.89
2023-04-24T16:09:48.759Z,80.44
2023-04-24T16:12:15.905Z,80.21
2023-04-24T16:14:42.809Z,80.38
2023-04-24T16:17:09.728Z,80.74
2023-04-24T16:19:36.660Z,80.46
2023-04-24T16:22:04.678Z,78.62
2023-04-24T16:24:31.504Z,78.36
2023-04-24T16:26:58.384Z,77.88
2023-04-24T16:29:25.239Z,75.58
2023-04-24T16:31:52.571Z,76.05
2023-04-24T16:34:19.629Z,75.99
2023-04-24T16:36:46.619Z,76.57
2023-04-24T16:39:13.659Z,76.62
2023-04-24T16:41:40.547Z,74.61
2023-04-24T16:44:07.452Z,75.22
2023-04-24T16:46:34.990Z,73.92
2023-04-24T16:49:01.890Z,73.88
2023-04-24T16:51:29.030Z,72.87
2023-04-24T16:53:56.077Z,72.37
2023-04-24T16:56:23.046Z,73.50
2023-04-24T16:58:50.771Z,74.16
2023-04-24T17:01:17.995Z,73.50
2023-04-24T17:03:45.165Z,74.20
2023-04-24T17:06:12.720Z,73.07
2023-04-24T17:08:39.617Z,73.61
2023-04-24T17:11:06.499Z,72.61
2023-04-24T17:13:33.845Z,73.51
2023-04-24T17:16:00.914Z,74.16
2023-04-24T17:18:27.790Z,73.90
2023-04-24T17:20:54.685Z,74.32
2023-04-24T17:23:21.676Z,74.49
2023-04-24T17:25:49.327Z,74.88
2023-04-24T17:28:32.390Z,74.48
2023-04-24T17:30:59.972Z,71.83
2023-04-24T17:33:31.032Z,71.40
2023-04-24T17:35:58.937Z,72.34
2023-04-24T17:38:25.835Z,70.41
2023-04-24T17:40:53.004Z,69.42
2023-04-24T17:43:23.907Z,65.83
2023-04-24T17:45:55.900Z,67.81
2023-04-24T17:48:22.844Z,68.38
2023-04-24T17:50:49.853Z,67.41
2023-04-24T17:53:18.775Z,67.88
2023-04-24T17:55:48.882Z,66.25
2023-04-24T17:58:15.891Z,65.68
2023-04-24T18:00:42.745Z,66.67
2023-04-24T18:03:10.590Z,65.60
2023-04-24T18:05:38.989Z,66.09
2023-04-24T18:08:06.617Z,65.30
2023-04-24T18:10:37.727Z,65.94
2023-04-24T18:13:05.697Z,66.47
2023-04-24T18:15:32.726Z,66.63
2023-04-24T18:17:59.819Z,66.42
2023-04-24T18:20:27.229Z,67.35
2023-04-24T18:22:54.542Z,67.64
2023-04-24T18:25:26.577Z,67.86
2023-04-24T18:27:55.716Z,68.15
2023-04-24T18:30:24.065Z,67.94
2023-04-24T18:32:53.265Z,67.68
2023-04-24T18:35:21.274Z,67.01
2023-04-24T18:37:48.198Z,67.55
2023-04-24T18:40:15.751Z,67.92
2023-04-24T18:42:43.038Z,68.58
2023-04-24T18:45:13.869Z,68.48
2023-04-24T18:47:41.829Z,69.06
2023-04-24T18:50:09.382Z,70.18
2023-04-24T18:52:36.297Z,71.11
2023-04-24T18:55:04.723Z,71.22
2023-04-24T18:57:31.602Z,71.38
2023-04-24T18:59:58.551Z,71.77
2023-04-24T19:02:25.564Z,71.32
2023-04-24T19:04:52.501Z,72.42
2023-04-24T19:07:19.832Z,72.64
2023-04-24T19:09:46.649Z,73.32
2023-04-24T19:12:13.594Z,73.59
2023-04-24T19:14:40.437Z,74.00
2023-04-24T19:17:09.962Z,73.94
2023-04-24T19:19:37.032Z,74.83
2023-04-24T19:22:04.608Z,75.69
2023-04-24T19:24:33.616Z,74.41
2023-04-24T19:27:01.476Z,74.88
2023-04-24T19:29:28.278Z,72.13
2023-04-24T19:31:57.662Z,72.54
2023-04-24T19:34:26.168Z,73.43
2023-04-24T19:36:53.174Z,73.75
2023-04-24T19:39:20.033Z,73.91
2023-04-24T19:41:46.843Z,73.77
2023-04-24T19:44:15.325Z,74.70
2023-04-24T19:46:42.319Z,75.41
2023-04-24T19:49:09.355Z,75.59
2023-04-24T19:51:36.200Z,75.61
2023-04-24T19:54:05.379Z,75.06
2023-04-24T19:56:32.755Z,74.64
2023-04-24T19:58:59.643Z,74.59
2023-04-24T20:01:26.526Z,75.21
2023-04-24T20:03:53.514Z,75.93
2023-04-24T20:06:20.439Z,76.21
2023-04-24T20:08:47.423Z,77.12
2023-04-24T20:11:15.050Z,77.13
2023-04-24T20:13:42.002Z,77.72
2023-04-24T20:16:11.338Z,77.79
2023-04-24T20:18:38.798Z,77.92
2023-04-24T20:21:05.770Z,78.48
2023-04-24T20:23:32.748Z,79.00
2023-04-24T20:25:59.730Z,79.23
2023-04-24T20:28:28.264Z,80.17
2023-04-24T20:30:55.252Z,79.81
2023-04-24T20:33:22.453Z,79.92
2023-04-24T20:35:49.711Z,80.41
2023-04-24T20:38:18.515Z,81.04
2023-04-24T20:43:20.344Z,81.36
2023-04-24T20:45:49.576Z,81.63
2023-04-24T20:48:16.504Z,82.06
2023-04-24T20:50:44.410Z,82.49
2023-04-24T20:53:11.302Z,83.35
2023-04-24T20:55:38.319Z,83.12
2023-04-24T20:58:05.564Z,83.88
2023-04-24T21:00:32.513Z,84.09
2023-04-24T21:02:59.557Z,84.45
2023-04-24T21:05:26.755Z,84.12
2023-04-24T21:07:56.033Z,84.53
2023-04-24T21:10:26.404Z,84.55
2023-04-24T21:12:53.458Z,84.58
2023-04-24T21:15:20.321Z,84.48
2023-04-24T21:17:47.304Z,85.31
2023-04-24T21:20:14.218Z,86.26
2023-04-24T21:22:41.187Z,86.54
2023-04-24T21:25:08.640Z,86.27
2023-04-24T21:27:36.529Z,86.02
2023-04-24T21:30:07.798Z,86.28
2023-04-24T21:32:34.790Z,86.73
2023-04-24T21:35:01.788Z,86.58
2023-04-24T21:37:28.710Z,86.01
2023-04-24T21:39:55.620Z,86.43
2023-04-24T21:42:22.573Z,87.19
2023-04-24T21:44:49.531Z,87.62
2023-04-24T21:47:16.491Z,87.51
2023-04-24T21:49:43.397Z,87.69
2023-04-24T21:52:10.206Z,89.00
2023-04-24T21:54:37.004Z,89.36
2023-04-24T21:57:04.024Z,89.35
2023-04-24T21:59:31.023Z,89.88
2023-04-24T22:01:58.003Z,90.07
2023-04-24T22:04:25.602Z,90.07
2023-04-24T22:06:53.352Z,90.62
2023-04-24T22:09:20.380Z,91.17
2023-04-24T22:11:47.842Z,91.02
2023-04-24T22:14:15.052Z,91.08
2023-04-24T22:16:42.128Z,91.80
2023-04-24T22:19:10.734Z,92.15
2023-04-24T22:21:39.357Z,95.25
2023-04-24T22:24:07.132Z,95.71
2023-04-24T22:26:34.196Z,96.42
2023-04-24T22:29:01.278Z,96.97
2023-04-24T22:31:28.120Z,97.02
2023-04-24T22:33:55.730Z,97.52
2023-04-24T22:36:22.535Z,97.91
2023-04-24T22:38:49.577Z,96.75
2023-04-24T22:41:16.468Z,97.66
2023-04-24T22:43:43.383Z,97.70
2023-04-24T22:46:10.290Z,97.48
2023-04-24T22:48:37.180Z,97.41
2023-04-24T22:51:04.136Z,97.26
2023-04-24T22:53:31.230Z,97.60
2023-04-24T22:55:58.110Z,97.39
2023-04-24T22:58:25.231Z,97.17
2023-04-24T23:00:52.111Z,97.37
2023-04-24T23:03:19.180Z,96.72
2023-04-24T23:05:46.197Z,96.97
2023-04-24T23:08:13.087Z,95.56
2023-04-24T23:10:40.017Z,96.05
2023-04-24T23:13:06.966Z,96.50
2023-04-24T23:15:34.717Z,96.22
2023-04-24T23:18:01.721Z,96.02
2023-04-24T23:20:28.720Z,97.24
2023-04-24T23:22:55.897Z,97.56
2023-04-24T23:25:22.753Z,97.47
2023-04-24T23:27:49.581Z,97.50
2023-04-24T23:30:16.429Z,97.03
2023-04-24T23:32:44.251Z,97.17
2023-04-24T23:35:11.847Z,97.67
2023-04-24T23:37:39.012Z,97.87
2023-04-24T23:40:10.367Z,97.46
2023-04-24T23:42:37.204Z,97.76
2023-04-24T23:45:04.932Z,98.26
2023-04-24T23:47:31.891Z,98.85
2023-04-24T23:49:58.744Z,100.00
2023-04-24T23:52:25.603Z,100.00
2023-04-24T23:54:52.477Z,100.00
2023-04-24T23:57:19.568Z,100.00
2023-04-24T23:59:46.413Z,100.00
